createdAt,value
2023-05-02T00:00:45.280Z,11.13
2023-05-02T00:03:13.811Z,11.93
2023-05-02T00:05:43.295Z,11.73
2023-05-02T00:08:11.926Z,13.33
2023-05-02T00:10:39.923Z,14.93
2023-05-02T00:13:08.078Z,15.27
2023-05-02T00:15:36.131Z,16.43
2023-05-02T00:18:04.228Z,16.87
2023-05-02T00:20:32.262Z,17.00
2023-05-02T00:23:01.613Z,17.67
2023-05-02T00:25:29.534Z,19.60
2023-05-02T00:27:57.530Z,18.97
2023-05-02T00:30:25.434Z,20.97
2023-05-02T00:32:54.230Z,20.47
2023-05-02T00:35:22.250Z,21.70
2023-05-02T00:37:50.315Z,23.03
2023-05-02T00:40:19.924Z,23.80
2023-05-02T00:42:47.907Z,23.50
2023-05-02T00:45:15.849Z,22.03
2023-05-02T00:47:43.845Z,23.97
2023-05-02T00:50:12.108Z,23.30
2023-05-02T00:52:40.058Z,23.80
2023-05-02T00:55:08.816Z,24.33
2023-05-02T00:57:38.826Z,23.00
2023-05-02T01:00:08.151Z,24.37
2023-05-02T01:02:44.718Z,24.00
2023-05-02T01:05:20.026Z,24.83
2023-05-02T01:07:58.197Z,24.37
2023-05-02T01:10:39.013Z,24.73
2023-05-02T01:13:13.118Z,23.97
2023-05-02T01:15:43.356Z,24.23
2023-05-02T01:18:14.370Z,22.60
2023-05-02T01:20:45.301Z,24.93
2023-05-02T01:23:22.754Z,23.13
2023-05-02T01:26:04.536Z,23.47
2023-05-02T01:28:43.770Z,23.57
2023-05-02T01:31:14.948Z,23.67
2023-05-02T01:33:43.858Z,23.77
2023-05-02T01:36:14.179Z,23.03
2023-05-02T01:38:44.761Z,23.03
2023-05-02T01:41:13.848Z,22.50
2023-05-02T01:43:44.561Z,21.63
2023-05-02T01:46:14.650Z,22.57
2023-05-02T01:48:45.565Z,21.20
2023-05-02T01:51:15.433Z,20.73
2023-05-02T01:53:45.105Z,20.47
2023-05-02T01:56:14.701Z,20.10
2023-05-02T01:58:45.482Z,19.40
2023-05-02T02:01:15.872Z,17.47
2023-05-02T02:03:45.185Z,16.37
2023-05-02T02:06:14.608Z,17.20
2023-05-02T02:08:43.202Z,16.10
2023-05-02T02:11:14.218Z,15.77
2023-05-02T02:13:49.932Z,15.80
2023-05-02T02:16:25.654Z,14.97
2023-05-02T02:18:57.716Z,13.67
2023-05-02T02:21:28.887Z,14.07
2023-05-02T02:24:02.687Z,13.67
2023-05-02T02:26:31.140Z,13.40
2023-05-02T02:29:01.715Z,12.87
2023-05-02T02:31:32.877Z,13.87
2023-05-02T02:34:01.588Z,13.80
2023-05-02T02:36:34.221Z,13.67
2023-05-02T02:39:18.104Z,13.30
2023-05-02T02:41:54.207Z,13.30
2023-05-02T02:44:33.597Z,12.83
2023-05-02T02:47:09.046Z,11.57
2023-05-02T02:49:48.585Z,11.03
2023-05-02T02:52:24.269Z,9.63
2023-05-02T02:54:58.329Z,7.40
2023-05-02T02:57:34.407Z,4.43
2023-05-02T03:00:13.187Z,4.80
2023-05-02T03:02:43.840Z,4.20
2023-05-02T03:05:12.676Z,3.60
2023-05-02T03:07:40.624Z,4.30
2023-05-02T03:10:09.649Z,4.33
2023-05-02T03:12:39.811Z,4.70
2023-05-02T03:15:24.340Z,4.27
2023-05-02T03:17:53.336Z,4.43
2023-05-02T03:20:21.332Z,4.87
2023-05-02T03:22:49.560Z,4.50
2023-05-02T03:25:18.363Z,4.67
2023-05-02T03:27:49.964Z,5.00
2023-05-02T03:30:20.692Z,4.93
2023-05-02T03:32:48.721Z,4.13
2023-05-02T03:35:17.716Z,4.70
2023-05-02T03:37:47.952Z,4.90
2023-05-02T03:40:16.299Z,4.33
2023-05-02T03:42:46.322Z,4.20
2023-05-02T03:45:25.493Z,4.33
2023-05-02T03:47:54.359Z,4.27
2023-05-02T03:50:23.694Z,5.30
2023-05-02T03:52:53.467Z,4.10
2023-05-02T03:55:29.377Z,4.13
2023-05-02T03:57:58.993Z,3.97
2023-05-02T04:00:28.246Z,4.27
2023-05-02T04:03:03.533Z,3.93
2023-05-02T04:05:33.037Z,4.17
2023-05-02T04:08:02.096Z,4.80
2023-05-02T04:10:31.575Z,4.37
2023-05-02T04:13:03.487Z,4.13
2023-05-02T04:15:33.976Z,4.20
2023-05-02T04:18:02.517Z,3.90
2023-05-02T04:20:31.715Z,4.20
2023-05-02T04:22:59.793Z,4.20
2023-05-02T04:25:28.950Z,3.73
2023-05-02T04:27:59.517Z,3.90
2023-05-02T04:30:27.696Z,4.40
2023-05-02T04:33:06.073Z,4.73
2023-05-02T04:35:37.207Z,4.53
2023-05-02T04:38:06.861Z,3.53
2023-05-02T04:40:35.768Z,4.00
2023-05-02T04:43:07.446Z,3.93
2023-05-02T04:45:41.015Z,4.07
2023-05-02T04:48:16.420Z,3.77
2023-05-02T04:50:46.421Z,3.63
2023-05-02T04:53:14.393Z,3.97
2023-05-02T04:55:43.019Z,4.53
2023-05-02T04:58:11.832Z,4.40
2023-05-02T05:00:40.628Z,3.93
2023-05-02T05:03:08.770Z,3.87
2023-05-02T05:05:38.819Z,4.10
2023-05-02T05:08:10.072Z,4.20
2023-05-02T05:10:40.364Z,3.70
2023-05-02T05:13:09.575Z,3.87
2023-05-02T05:15:39.005Z,3.50
2023-05-02T05:18:07.681Z,3.83
2023-05-02T05:20:35.701Z,3.70
2023-05-02T05:23:07.422Z,3.70
2023-05-02T05:25:35.912Z,4.00
2023-05-02T05:28:04.343Z,3.80
2023-05-02T05:30:35.076Z,3.60
2023-05-02T05:33:05.402Z,3.63
2023-05-02T05:35:33.853Z,3.37
2023-05-02T05:38:03.153Z,3.30
2023-05-02T05:40:35.954Z,3.37
2023-05-02T05:43:04.545Z,3.87
2023-05-02T05:45:36.282Z,3.83
2023-05-02T05:48:06.173Z,3.30
2023-05-02T05:50:39.518Z,3.60
2023-05-02T05:53:07.540Z,3.20
2023-05-02T05:55:40.797Z,3.43
2023-05-02T05:58:10.393Z,3.07
2023-05-02T06:00:40.498Z,3.60
2023-05-02T06:03:09.945Z,2.80
2023-05-02T06:05:38.206Z,3.60
2023-05-02T06:08:06.287Z,2.70
2023-05-02T06:10:34.237Z,2.87
2023-05-02T06:13:04.611Z,3.30
2023-05-02T06:15:36.911Z,2.97
2023-05-02T06:18:06.994Z,3.27
2023-05-02T06:20:37.499Z,2.40
2023-05-02T06:23:05.531Z,2.90
2023-05-02T06:25:33.910Z,3.37
2023-05-02T06:28:01.945Z,2.80
2023-05-02T06:30:31.186Z,2.63
2023-05-02T06:32:59.194Z,3.20
2023-05-02T06:35:27.121Z,2.60
2023-05-02T06:37:55.034Z,2.70
2023-05-02T06:40:22.994Z,2.40
2023-05-02T06:42:50.973Z,2.90
2023-05-02T06:45:18.841Z,2.50
2023-05-02T06:47:48.217Z,2.40
2023-05-02T06:50:16.837Z,2.40
2023-05-02T06:52:44.815Z,2.80
2023-05-02T06:55:12.721Z,2.50
2023-05-02T06:57:41.100Z,2.40
2023-05-02T07:00:10.324Z,2.40
2023-05-02T07:02:38.440Z,2.33
2023-05-02T07:05:08.414Z,2.50
2023-05-02T07:07:36.351Z,2.30
2023-05-02T07:10:04.377Z,2.50
2023-05-02T07:12:32.383Z,2.13
2023-05-02T07:15:00.314Z,2.20
2023-05-02T07:17:29.333Z,2.23
2023-05-02T07:19:57.477Z,2.40
2023-05-02T07:22:27.146Z,2.10
2023-05-02T07:24:59.487Z,2.40
2023-05-02T07:27:27.508Z,2.43
2023-05-02T07:29:55.425Z,2.40
2023-05-02T07:32:25.506Z,3.00
2023-05-02T07:34:54.905Z,2.47
2023-05-02T07:37:23.036Z,2.30
2023-05-02T07:39:52.640Z,2.37
2023-05-02T07:42:20.655Z,2.20
2023-05-02T07:44:48.545Z,2.53
2023-05-02T07:47:16.503Z,2.00
2023-05-02T07:49:44.382Z,2.20
2023-05-02T07:52:12.354Z,2.30
2023-05-02T07:54:40.466Z,2.80
2023-05-02T07:57:09.779Z,1.90
2023-05-02T07:59:37.708Z,2.23
2023-05-02T08:02:05.742Z,2.47
2023-05-02T08:04:33.908Z,2.17
2023-05-02T08:07:02.105Z,2.10
2023-05-02T08:09:30.856Z,2.20
2023-05-02T08:11:58.822Z,2.20
2023-05-02T08:14:28.169Z,1.93
2023-05-02T08:16:56.162Z,2.33
2023-05-02T08:19:24.144Z,2.00
2023-05-02T08:21:52.149Z,2.30
2023-05-02T08:24:20.114Z,2.07
2023-05-02T08:26:48.053Z,2.20
2023-05-02T08:29:16.179Z,1.90
2023-05-02T08:31:45.787Z,1.77
2023-05-02T08:34:13.854Z,2.03
2023-05-02T08:36:41.764Z,2.00
2023-05-02T08:39:10.695Z,1.80
2023-05-02T08:41:40.070Z,2.33
2023-05-02T08:44:08.874Z,1.83
2023-05-02T08:46:37.766Z,2.13
2023-05-02T08:49:08.279Z,2.10
2023-05-02T08:51:39.420Z,2.00
2023-05-02T08:54:10.962Z,2.10
2023-05-02T08:56:39.641Z,1.90
2023-05-02T08:59:08.380Z,2.33
2023-05-02T09:01:37.983Z,2.00
2023-05-02T09:04:07.739Z,1.90
2023-05-02T09:06:37.494Z,1.90
2023-05-02T09:09:05.688Z,1.90
2023-05-02T09:11:33.603Z,1.73
2023-05-02T09:14:04.095Z,1.93
2023-05-02T09:16:40.812Z,1.90
2023-05-02T09:19:10.304Z,1.70
2023-05-02T09:21:40.235Z,2.00
2023-05-02T09:24:16.920Z,1.70
2023-05-02T09:26:58.570Z,1.73
2023-05-02T09:29:27.982Z,1.87
2023-05-02T09:31:56.798Z,1.87
2023-05-02T09:34:26.287Z,1.80
2023-05-02T09:36:54.937Z,2.00
2023-05-02T09:39:26.116Z,2.20
2023-05-02T09:41:55.050Z,1.80
2023-05-02T09:44:25.086Z,2.30
2023-05-02T09:46:54.447Z,1.80
2023-05-02T09:49:40.806Z,1.93
2023-05-02T09:52:12.514Z,1.90
2023-05-02T09:54:42.141Z,1.80
2023-05-02T09:57:10.825Z,1.60
2023-05-02T09:59:41.173Z,1.73
2023-05-02T10:02:11.488Z,1.87
2023-05-02T10:04:42.836Z,1.63
2023-05-02T10:07:11.495Z,1.73
2023-05-02T10:09:45.367Z,1.53
2023-05-02T10:12:17.041Z,1.97
2023-05-02T10:14:53.216Z,1.87
2023-05-02T10:17:28.368Z,1.93
2023-05-02T10:20:01.731Z,1.87
2023-05-02T10:22:31.262Z,2.00
2023-05-02T10:25:00.939Z,2.13
2023-05-02T10:27:30.896Z,1.77
2023-05-02T10:30:00.277Z,1.50
2023-05-02T10:32:29.974Z,1.67
2023-05-02T10:35:04.945Z,1.50
2023-05-02T10:37:35.369Z,1.40
2023-05-02T10:40:04.023Z,1.57
2023-05-02T10:42:32.565Z,1.40
2023-05-02T10:45:01.461Z,1.70
2023-05-02T10:47:30.396Z,1.70
2023-05-02T10:50:01.821Z,1.70
2023-05-02T10:52:31.802Z,1.40
2023-05-02T10:55:16.862Z,1.70
2023-05-02T10:58:23.256Z,1.67
2023-05-02T11:00:51.463Z,1.90
2023-05-02T11:03:52.905Z,1.87
2023-05-02T11:06:22.414Z,1.90
2023-05-02T11:08:50.420Z,1.70
2023-05-02T11:11:42.053Z,2.30
2023-05-02T11:14:10.564Z,2.17
2023-05-02T11:17:07.296Z,1.80
2023-05-02T11:20:09.185Z,1.77
2023-05-02T11:22:38.665Z,2.30
2023-05-02T11:25:33.586Z,1.80
2023-05-02T11:28:01.893Z,1.97
2023-05-02T11:30:44.248Z,1.80
2023-05-02T11:33:17.114Z,1.83
2023-05-02T11:35:46.767Z,1.90
2023-05-02T11:38:22.123Z,1.80
2023-05-02T11:40:55.391Z,1.70
2023-05-02T11:43:25.216Z,2.03
2023-05-02T11:45:53.908Z,1.90
2023-05-02T11:48:23.211Z,2.10
2023-05-02T11:50:52.923Z,1.93
2023-05-02T11:53:23.867Z,1.60
2023-05-02T11:55:53.820Z,1.70
2023-05-02T11:58:24.571Z,1.77
2023-05-02T12:00:54.260Z,1.63
2023-05-02T12:03:28.884Z,1.60
2023-05-02T12:05:58.123Z,1.53
2023-05-02T12:08:28.828Z,1.80
2023-05-02T12:10:57.968Z,2.20
2023-05-02T12:13:27.279Z,1.70
2023-05-02T12:15:56.390Z,1.90
2023-05-02T12:18:26.987Z,2.13
2023-05-02T12:20:57.403Z,2.40
2023-05-02T12:23:27.795Z,2.40
2023-05-02T12:25:56.101Z,2.87
2023-05-02T12:28:24.470Z,3.10
2023-05-02T12:30:53.054Z,2.60
2023-05-02T12:33:21.014Z,2.20
2023-05-02T12:35:49.176Z,2.53
2023-05-02T12:38:18.750Z,2.30
2023-05-02T12:40:57.591Z,1.97
2023-05-02T12:43:25.706Z,1.73
2023-05-02T12:46:10.928Z,1.77
2023-05-02T12:48:39.034Z,1.73
2023-05-02T12:51:07.300Z,2.03
2023-05-02T12:53:42.442Z,2.00
2023-05-02T12:56:13.396Z,2.10
2023-05-02T12:58:43.058Z,2.57
2023-05-02T13:01:11.501Z,2.50
2023-05-02T13:03:39.938Z,2.93
2023-05-02T13:06:08.272Z,2.50
2023-05-02T13:08:37.114Z,2.40
2023-05-02T13:11:05.636Z,2.47
2023-05-02T13:13:35.537Z,2.53
2023-05-02T13:16:03.817Z,2.33
2023-05-02T13:18:31.917Z,2.40
2023-05-02T13:21:00.003Z,2.50
2023-05-02T13:23:27.974Z,2.10
2023-05-02T13:25:55.922Z,2.00
2023-05-02T13:28:23.836Z,2.53
2023-05-02T13:30:53.199Z,2.13
2023-05-02T13:33:21.244Z,2.00
2023-05-02T13:35:49.116Z,2.07
2023-05-02T13:38:17.082Z,2.23
2023-05-02T13:40:44.984Z,2.20
2023-05-02T13:43:12.948Z,2.17
2023-05-02T13:45:41.010Z,1.70
2023-05-02T13:48:10.376Z,2.20
2023-05-02T13:50:39.073Z,2.07
2023-05-02T13:53:07.116Z,2.30
2023-05-02T13:55:34.988Z,1.83
2023-05-02T13:58:03.510Z,2.13
2023-05-02T14:00:31.477Z,2.20
2023-05-02T14:02:59.646Z,3.00
2023-05-02T14:05:28.944Z,3.03
2023-05-02T14:07:56.914Z,2.63
2023-05-02T14:10:24.783Z,2.20
2023-05-02T14:12:53.523Z,2.43
2023-05-02T14:15:22.067Z,2.00
2023-05-02T14:17:50.928Z,2.17
2023-05-02T14:20:18.921Z,2.30
2023-05-02T14:22:48.232Z,2.77
2023-05-02T14:25:19.638Z,2.07
2023-05-02T14:27:47.867Z,2.47
2023-05-02T14:30:15.822Z,3.17
2023-05-02T14:32:43.833Z,3.33
2023-05-02T14:35:12.199Z,3.20
2023-05-02T14:37:40.318Z,2.03
2023-05-02T14:40:10.785Z,2.00
2023-05-02T14:42:38.794Z,2.13
2023-05-02T14:45:07.836Z,2.23
2023-05-02T14:47:35.905Z,2.30
2023-05-02T14:50:05.191Z,2.10
2023-05-02T14:52:33.394Z,2.00
2023-05-02T14:55:01.613Z,2.00
2023-05-02T14:57:31.002Z,1.90
2023-05-02T14:59:59.024Z,2.00
2023-05-02T15:02:27.154Z,2.03
2023-05-02T15:04:55.215Z,2.07
2023-05-02T15:07:23.334Z,2.13
2023-05-02T15:09:51.518Z,2.10
2023-05-02T15:12:19.367Z,2.00
2023-05-02T15:14:48.663Z,1.90
2023-05-02T15:17:16.656Z,2.27
2023-05-02T15:19:44.682Z,1.90
2023-05-02T15:22:12.601Z,1.80
2023-05-02T15:24:40.713Z,2.50
2023-05-02T15:27:09.382Z,2.07
2023-05-02T15:29:37.434Z,2.17
2023-05-02T15:32:07.070Z,2.00
2023-05-02T15:34:35.013Z,1.90
2023-05-02T15:37:03.177Z,2.20
2023-05-02T15:39:31.229Z,2.30
2023-05-02T15:41:59.166Z,2.20
2023-05-02T15:44:27.209Z,1.97
2023-05-02T15:46:55.918Z,1.93
2023-05-02T15:49:31.528Z,1.83
2023-05-02T15:51:59.537Z,1.93
2023-05-02T15:54:27.715Z,2.17
2023-05-02T15:56:55.912Z,1.80
2023-05-02T15:59:23.921Z,1.73
2023-05-02T16:01:51.990Z,1.80
2023-05-02T16:04:20.180Z,1.80
2023-05-02T16:06:49.674Z,1.90
2023-05-02T16:09:19.348Z,1.90
2023-05-02T16:11:47.190Z,1.90
2023-05-02T16:14:15.309Z,1.70
2023-05-02T16:16:43.285Z,1.80
2023-05-02T16:19:13.308Z,1.90
2023-05-02T16:21:42.839Z,2.00
2023-05-02T16:24:12.146Z,1.83
2023-05-02T16:26:40.522Z,1.57
2023-05-02T16:29:08.465Z,1.73
2023-05-02T16:31:36.586Z,2.37
2023-05-02T16:34:04.507Z,1.90
2023-05-02T16:36:33.263Z,1.67
2023-05-02T16:39:01.176Z,1.90
2023-05-02T16:41:30.516Z,1.70
2023-05-02T16:43:58.757Z,2.00
2023-05-02T16:46:26.680Z,2.43
2023-05-02T16:48:54.622Z,1.90
2023-05-02T16:51:22.709Z,2.27
2023-05-02T16:53:50.988Z,1.93
2023-05-02T16:56:18.930Z,2.20
2023-05-02T16:58:48.287Z,1.93
2023-05-02T17:01:17.145Z,2.00
2023-05-02T17:03:45.185Z,1.80
2023-05-02T17:06:13.159Z,2.10
2023-05-02T17:08:41.152Z,2.00
2023-05-02T17:11:09.030Z,1.83
2023-05-02T17:13:36.995Z,2.03
2023-05-02T17:16:08.186Z,1.80
2023-05-02T17:18:36.321Z,1.70
2023-05-02T17:21:04.341Z,2.17
2023-05-02T17:23:32.320Z,1.60
2023-05-02T17:26:00.568Z,1.80
2023-05-02T17:28:28.606Z,1.80
2023-05-02T17:30:59.054Z,1.87
2023-05-02T17:33:28.519Z,1.60
2023-05-02T17:35:56.412Z,1.70
2023-05-02T17:38:24.407Z,1.90
2023-05-02T17:40:52.689Z,1.93
2023-05-02T17:43:21.010Z,2.20
2023-05-02T17:45:50.088Z,2.00
2023-05-02T17:48:18.988Z,2.10
2023-05-02T17:50:49.812Z,2.60
2023-05-02T17:53:17.811Z,2.10
2023-05-02T17:55:45.803Z,2.33
2023-05-02T17:58:14.058Z,2.07
2023-05-02T18:00:41.984Z,2.00
2023-05-02T18:03:10.058Z,2.10
2023-05-02T18:05:44.019Z,2.10
2023-05-02T18:08:13.314Z,2.00
2023-05-02T18:10:42.627Z,2.10
2023-05-02T18:13:10.647Z,2.07
2023-05-02T18:15:38.588Z,2.80
2023-05-02T18:18:06.590Z,1.90
2023-05-02T18:20:39.312Z,1.93
2023-05-02T18:23:07.786Z,2.10
2023-05-02T18:25:37.041Z,2.17
2023-05-02T18:28:05.132Z,1.87
2023-05-02T18:30:36.467Z,1.90
2023-05-02T18:33:04.537Z,2.03
2023-05-02T18:35:32.489Z,1.90
2023-05-02T18:38:00.988Z,1.90
2023-05-02T18:40:29.042Z,2.40
2023-05-02T18:42:58.401Z,1.73
2023-05-02T18:45:26.556Z,1.80
2023-05-02T18:47:54.515Z,2.00
2023-05-02T18:50:22.505Z,2.00
2023-05-02T18:52:50.513Z,1.80
2023-05-02T18:55:18.873Z,1.77
2023-05-02T18:57:47.023Z,2.00
2023-05-02T19:00:16.912Z,1.80
2023-05-02T19:02:45.138Z,1.80
2023-05-02T19:05:13.097Z,1.90
2023-05-02T19:07:41.036Z,2.00
2023-05-02T19:10:10.930Z,1.60
2023-05-02T19:12:39.538Z,1.60
2023-05-02T19:15:09.543Z,1.60
2023-05-02T19:17:38.910Z,1.50
2023-05-02T19:20:08.253Z,1.60
2023-05-02T19:22:37.112Z,1.40
2023-05-02T19:25:05.570Z,1.70
2023-05-02T19:27:33.574Z,1.60
2023-05-02T19:30:01.444Z,1.80
2023-05-02T19:32:29.686Z,1.40
2023-05-02T19:34:58.983Z,1.67
2023-05-02T19:37:26.945Z,1.73
2023-05-02T19:39:54.866Z,1.90
2023-05-02T19:42:23.085Z,2.13
2023-05-02T19:44:51.124Z,1.50
2023-05-02T19:47:19.071Z,1.67
2023-05-02T19:49:46.971Z,2.00
2023-05-02T19:52:16.260Z,1.80
2023-05-02T19:54:44.151Z,1.80
2023-05-02T19:57:12.171Z,1.83
2023-05-02T19:59:40.068Z,1.83
2023-05-02T20:02:09.371Z,1.90
2023-05-02T20:04:37.316Z,1.60
2023-05-02T20:07:05.325Z,1.70
2023-05-02T20:09:34.630Z,1.60
2023-05-02T20:12:02.571Z,1.87
2023-05-02T20:14:30.488Z,1.80
2023-05-02T20:17:01.814Z,1.50
2023-05-02T20:19:32.160Z,1.87
2023-05-02T20:22:00.354Z,1.80
2023-05-02T20:24:28.273Z,1.80
2023-05-02T20:26:57.556Z,2.10
2023-05-02T20:29:25.866Z,1.90
2023-05-02T20:31:55.175Z,2.10
2023-05-02T20:34:24.387Z,1.97
2023-05-02T20:36:52.524Z,2.20
2023-05-02T20:39:21.713Z,1.90
2023-05-02T20:41:49.972Z,2.57
2023-05-02T20:44:22.436Z,2.00
2023-05-02T20:46:51.366Z,1.87
2023-05-02T20:49:19.305Z,2.30
2023-05-02T20:51:47.219Z,2.10
2023-05-02T20:54:15.196Z,2.10
2023-05-02T20:56:43.238Z,2.13
2023-05-02T20:59:11.568Z,2.07
2023-05-02T21:01:41.005Z,2.20
2023-05-02T21:04:09.131Z,2.00
2023-05-02T21:06:37.253Z,2.17
2023-05-02T21:09:05.302Z,2.30
2023-05-02T21:11:33.279Z,2.10
2023-05-02T21:14:01.358Z,2.33
2023-05-02T21:16:29.270Z,2.03
2023-05-02T21:18:58.642Z,2.40
2023-05-02T21:21:26.648Z,2.03
2023-05-02T21:23:54.522Z,2.10
2023-05-02T21:26:22.551Z,2.50
2023-05-02T21:28:50.457Z,2.50
2023-05-02T21:31:18.440Z,2.50
2023-05-02T21:33:46.423Z,2.70
2023-05-02T21:36:15.765Z,2.40
2023-05-02T21:38:43.778Z,2.27
2023-05-02T21:41:11.641Z,2.43
2023-05-02T21:43:40.716Z,2.60
2023-05-02T21:46:11.168Z,2.10
2023-05-02T21:48:39.522Z,2.50
2023-05-02T21:51:08.504Z,2.13
2023-05-02T21:53:38.314Z,2.40
2023-05-02T21:56:08.054Z,2.37
2023-05-02T21:58:36.101Z,2.50
2023-05-02T22:01:04.125Z,2.20
2023-05-02T22:03:34.655Z,2.20
2023-05-02T22:06:05.993Z,2.43
2023-05-02T22:08:34.780Z,3.27
2023-05-02T22:11:07.929Z,2.67
2023-05-02T22:13:36.009Z,2.37
2023-05-02T22:16:04.174Z,2.60
2023-05-02T22:18:32.557Z,2.30
2023-05-02T22:21:01.567Z,2.33
2023-05-02T22:23:30.917Z,2.20
2023-05-02T22:25:59.297Z,2.40
2023-05-02T22:28:28.621Z,2.30
2023-05-02T22:30:56.555Z,2.50
2023-05-02T22:33:24.955Z,2.40
2023-05-02T22:35:52.917Z,2.00
2023-05-02T22:38:21.205Z,2.13
2023-05-02T22:40:49.234Z,2.20
2023-05-02T22:43:17.938Z,2.50
2023-05-02T22:45:49.074Z,2.10
2023-05-02T22:48:17.117Z,2.37
2023-05-02T22:50:47.582Z,2.30
2023-05-02T22:53:15.667Z,2.70
2023-05-02T22:55:43.953Z,2.80
2023-05-02T22:58:12.648Z,2.53
2023-05-02T23:00:40.649Z,2.00
2023-05-02T23:03:10.491Z,1.90
2023-05-02T23:05:38.519Z,2.37
2023-05-02T23:08:06.491Z,2.37
2023-05-02T23:10:34.556Z,2.20
2023-05-02T23:13:02.580Z,2.40
2023-05-02T23:15:30.688Z,2.30
2023-05-02T23:17:58.736Z,2.33
2023-05-02T23:20:28.108Z,2.33
2023-05-02T23:22:56.241Z,2.20
2023-05-02T23:25:27.365Z,2.40
2023-05-02T23:27:55.482Z,2.33
2023-05-02T23:30:23.913Z,2.57
2023-05-02T23:32:52.008Z,2.50
2023-05-02T23:35:20.190Z,2.40
2023-05-02T23:37:50.173Z,2.83
2023-05-02T23:40:18.440Z,2.80
2023-05-02T23:42:46.640Z,2.43
2023-05-02T23:45:17.098Z,2.40
2023-05-02T23:47:45.129Z,2.67
2023-05-02T23:50:13.311Z,2.63
2023-05-02T23:52:41.201Z,3.00
2023-05-02T23:55:11.119Z,3.00
2023-05-02T23:57:39.295Z,2.90
